メインページ
METAR-TAF:

METAR-TAF

空港 :

ハリファックス, ノバスコシア州, カナダ

ハリファックス・ロバート・L・スタンフィールド国際空港

緯度: 44-53N, 経度: 063-30W, 海抜: 145m

現時点の気象観測

当レポートは20分前の23:00(UTC)に作成
北東の風 5kt
気温 9°C
湿度 81%
気圧 1011 hPa
視程: 24.1km
高度2200ftの曇り

METAR: CYHZ 272300Z 05005KT 15SM OVC022 09/06 A2985 RMK SC8 SLP114

時間: 20:20 (23:20 UTC)

予報

当レポートは2時間41分前の20:39(UTC)に作成
予報は27日の 21時(UTC)から 28日の 18時(UTC)まで有効
北/北東の風 8kt
視程: 10km
高度2000ftの千切れ雲あり
高度3000ftの曇り
27日の 21時(UTC)から 27日の 23時(UTC)まで一時的に
高度2000ftの雲は散在している
高度3000ftの曇り
27日の 21時(UTC)から 27日の 23時(UTC)まで徐々に
変向風 3kt
27日の 2300時(UTC)から
変向風 3kt
視程: 10km
高度1200ftの曇り
27日の 23時(UTC)から 28日の 07時(UTC)まで一時的に
視程: 8.0km
高度700ftの曇り
小雨, 小霧雨, 靄
28日の 0700時(UTC)から
北東の風 6kt
視程: 10km
高度1500ftの千切れ雲あり
高度2500ftの曇り
28日の 16時(UTC)から 28日の 18時(UTC)まで徐々に
南/南東の風 6kt

TAF: CYHZ 272039Z 2721/2818 03008KT P6SM BKN020 OVC030 TEMPO 2721/2723 SCT020 OVC030 BECMG 2721/2723 VRB03KT FM272300 VRB03KT P6SM OVC012 TEMPO 2723/2807 5SM -RA -DZ BR OVC007 FM280700 05006KT P6SM BKN015 OVC025 BECMG 2816/2818 15006KT RMK NXT FCST BY 280000Z

4,000以上の空港の気象観測と天気予報(METAR報とTAF報)

利用可能な観測所は地図上に黄色い丸と赤い丸で示す。

丸の上にカーソルを重ねると観測所名を参照できる。

次にクリックすると気象観測と天気予報を参照できる。

マップの切り替え:黒色「×」印の緑ボタンをクリックして拡大、「-」印の緑ボタンをクリックして縮小、緑色の三角印をクリックして隣りの地図に切り替え


METAR-TAF: